Time;durP1;ratioP1;P1;durP2;ratioP2;P2;SDS_P1;SDS_P2;PMS_P1;PMS_P2;Temp;Humidity;BMP_temperature;BMP_pressure;BME280_temperature;BME280_humidity;BME280_pressure;Samples;Min_cycle;Max_cycle;Signal;HPM_P1;HPM_P2
2022/02/01 00:00:24;;;;;;;;;;;;;;;7.06;100.00;99518.59;5074180;28;19924;-79
2022/02/01 00:02:56;;;;;;;;;;;;;;;7.14;100.00;99514.69;5056106;28;20368;-79
2022/02/01 00:05:30;;;;;;;;;;;;;;;7.20;100.00;99547.28;5056193;28;19920;-79
2022/02/01 00:13:15;;;;;;;;;;;;;;;7.19;100.00;99500.41;5074081;28;19997;-79
2022/02/01 00:37:32;;;;;;;;;;;;;;;7.39;100.00;99610.13;5015105;28;20404;-79
2022/02/01 00:40:06;;;;;;;;;;;;;;;7.44;100.00;99600.59;5031696;28;19964;-79
2022/02/01 00:42:36;;;;;;;;;;;;;;;7.48;100.00;99623.66;5028319;28;19920;-79
2022/02/01 00:45:04;;;;;;;;;;;;;;;7.53;100.00;99624.06;5031115;28;20385;-79
2022/02/01 00:47:32;;;;;;;;;;;;;;;7.54;100.00;99606.22;5030737;28;20384;-79
2022/02/01 00:49:59;;;;;;;;;;;;;;;7.56;100.00;99614.94;5031058;28;20369;-79
2022/02/01 00:52:29;;;;;;;;;;;;;;;7.64;100.00;99613.00;5031241;28;20308;-79
2022/02/01 00:54:56;;;;;;;;;;;;;;;7.65;100.00;99618.16;5031116;28;20348;-79
2022/02/01 00:57:24;;;;;;;;;;;;;;;7.68;100.00;99641.63;5031252;28;19921;-79
2022/02/01 00:59:51;;;;;;;;;;;;;;;7.53;100.00;99626.84;5031643;28;19968;-79
2022/02/01 01:02:18;;;;;;;;;;;;;;;7.42;100.00;99606.56;5013622;28;20346;-79
2022/02/01 01:04:47;;;;;;;;;;;;;;;7.57;100.00;99572.06;4979074;28;19927;-79
2022/02/01 01:07:20;;;;;;;;;;;;;;;7.50;100.00;99594.25;5000172;28;20382;-79
2022/02/01 01:09:48;;;;;;;;;;;;;;;7.55;100.00;99596.69;5087562;28;19934;-79
2022/02/01 01:12:17;;;;;;;;;;;;;;;7.45;100.00;99572.41;5095908;28;20286;-79
2022/02/01 01:45:06;;;;;;;;;;;;;;;7.45;100.00;99514.03;5082175;28;19920;-79
2022/02/01 01:53:18;;;;;;;;;;;;;;;7.49;100.00;99487.03;5099263;28;19967;-79
2022/02/01 01:56:01;;;;;;;;;;;;;;;7.44;100.00;99495.72;5117557;28;20329;-79
2022/02/01 01:58:28;;;;;;;;;;;;;;;7.41;100.00;99512.41;5082290;28;20003;-79
2022/02/01 02:01:14;;;;;;;;;;;;;;;7.50;100.00;99521.97;5099260;28;19920;-80
2022/02/01 02:03:45;;;;;;;;;;;;;;;7.53;100.00;99529.53;5117281;28;20022;-79
2022/02/01 02:06:13;;;;;;;;;;;;;;;7.53;100.00;99518.41;5117328;28;19919;-79
2022/02/01 02:08:46;;;;;;;;;;;;;;;7.58;100.00;99567.28;5099126;28;19920;-79
2022/02/01 02:11:19;;;;;;;;;;;;;;;7.59;100.00;99557.78;5098773;28;20383;-79
2022/02/01 02:16:36;;;;;;;;;;;;;;;7.52;100.00;99586.34;5081826;28;19920;-79
2022/02/01 02:19:04;;;;;;;;;;;;;;;7.65;100.00;99562.53;5082348;28;19976;-79
2022/02/01 02:21:31;;;;;;;;;;;;;;;7.63;100.00;99558.56;5081577;28;19919;-79
2022/02/01 02:23:59;;;;;;;;;;;;;;;7.62;100.00;99557.75;5098584;28;20030;-79
2022/02/01 02:26:27;;;;;;;;;;;;;;;7.68;100.00;99535.94;5116796;28;20008;-79
2022/02/01 02:28:54;;;;;;;;;;;;;;;7.68;100.00;99567.31;5098576;28;19930;-79
2022/02/01 02:31:22;;;;;;;;;;;;;;;7.62;100.00;99545.88;5116801;28;19963;-79
2022/02/01 02:33:49;;;;;;;;;;;;;;;7.67;100.00;99557.38;5081768;28;19927;-79
2022/02/01 02:36:19;;;;;;;;;;;;;;;7.65;100.00;99550.63;5098283;28;19920;-79
2022/02/01 02:38:59;;;;;;;;;;;;;;;7.73;100.00;99552.22;5098547;28;19926;-79
2022/02/01 02:41:32;;;;;;;;;;;;;;;7.82;100.00;99544.31;5082179;28;20424;-79
2022/02/01 02:46:53;;;;;;;;;;;;;;;7.74;100.00;99526.81;5081456;28;19955;-79
2022/02/01 02:49:21;;;;;;;;;;;;;;;7.74;100.00;99529.59;5098364;28;19930;-79
2022/02/01 02:51:49;;;;;;;;;;;;;;;7.72;100.00;99531.97;5116313;28;19972;-79
2022/02/01 02:54:21;;;;;;;;;;;;;;;7.68;100.00;99486.66;5098359;28;19963;-79
2022/02/01 02:56:49;;;;;;;;;;;;;;;7.73;100.00;99494.63;5081509;28;19968;-79
2022/02/01 02:59:23;;;;;;;;;;;;;;;7.85;100.00;99505.38;5116150;28;20517;-79
2022/02/01 03:01:50;;;;;;;;;;;;;;;7.78;100.00;99474.78;5093749;28;20244;-79
2022/02/01 03:04:19;;;;;;;;;;;;;;;7.86;100.00;99472.78;5115774;28;19920;-79
2022/02/01 03:06:46;;;;;;;;;;;;;;;7.84;100.00;99442.59;5081028;28;19945;-79
2022/02/01 03:09:13;;;;;;;;;;;;;;;7.88;100.00;99426.69;5081270;28;19997;-79
2022/02/01 03:11:41;;;;;;;;;;;;;;;7.79;100.00;99442.16;5115839;28;19923;-79
2022/02/01 03:15:07;;;;;;;;;;;;;;;7.85;100.00;99460.88;5115629;28;19919;-78
2022/02/01 03:19:49;;;;;;;;;;;;;;;7.84;100.00;99459.28;5087660;28;19924;-79
2022/02/01 03:19:49;;;;;;;;;;;;;;;7.86;100.00;99484.69;5086976;28;19923;-80
2022/02/01 03:22:21;;;;;;;;;;;;;;;7.92;100.00;99485.91;5080808;28;19926;-79
2022/02/01 03:24:49;;;;;;;;;;;;;;;7.95;100.00;99448.16;5115734;28;19926;-79
2022/02/01 03:27:16;;;;;;;;;;;;;;;7.88;100.00;99487.91;5063974;28;20001;-79
2022/02/01 03:29:45;;;;;;;;;;;;;;;7.82;100.00;99441.38;5115440;28;19919;-79
2022/02/01 03:32:11;;;;;;;;;;;;;;;7.95;100.00;99498.25;5097253;28;20057;-79
2022/02/01 03:34:39;;;;;;;;;;;;;;;7.96;100.00;99502.59;5115422;28;20412;-79
2022/02/01 03:37:11;;;;;;;;;;;;;;;7.93;100.00;99501.41;5092672;28;19927;-79
2022/02/01 03:39:44;;;;;;;;;;;;;;;7.94;100.00;99525.25;5095172;28;19926;-79
2022/02/01 03:42:11;;;;;;;;;;;;;;;7.91;100.00;99492.66;5060054;28;20359;-80
2022/02/01 03:44:38;;;;;;;;;;;;;;;7.93;100.00;99529.25;5076501;28;19955;-79
2022/02/01 03:47:06;;;;;;;;;;;;;;;8.02;100.00;99521.31;5077088;28;19926;-79
2022/02/01 03:49:34;;;;;;;;;;;;;;;7.96;100.00;99510.97;5094802;28;19920;-79
2022/02/01 03:52:02;;;;;;;;;;;;;;;8.06;100.00;99552.72;5075856;28;20462;-79
2022/02/01 03:54:30;;;;;;;;;;;;;;;7.98;100.00;99565.00;5094743;28;19955;-79
2022/02/01 03:56:58;;;;;;;;;;;;;;;8.08;100.00;99557.88;5076678;28;19920;-78
2022/02/01 03:59:26;;;;;;;;;;;;;;;8.05;100.00;99581.75;5076560;28;19924;-78
2022/02/01 04:01:55;;;;;;;;;;;;;;;8.19;100.00;99615.19;5076414;28;19927;-79
2022/02/01 04:04:24;;;;;;;;;;;;;;;8.15;100.00;99611.59;5094285;28;19973;-78
2022/02/01 04:06:52;;;;;;;;;;;;;;;8.15;100.00;99599.66;5094350;28;19926;-79
2022/02/01 04:09:19;;;;;;;;;;;;;;;8.24;100.00;99605.69;5076261;28;19920;-79
2022/02/01 04:11:46;;;;;;;;;;;;;;;8.22;100.00;99596.88;5043082;28;20026;-79
2022/02/01 04:14:25;;;;;;;;;;;;;;;8.29;100.00;99625.56;5077453;28;19920;-79
2022/02/01 04:16:52;;;;;;;;;;;;;;;8.22;100.00;99631.13;5076454;28;20008;-79
2022/02/01 04:19:19;;;;;;;;;;;;;;;8.30;100.00;99621.59;5094250;28;19923;-78
2022/02/01 04:24:26;;;;;;;;;;;;;;;8.26;100.00;99592.94;5094029;28;19981;-79
2022/02/01 04:26:53;;;;;;;;;;;;;;;8.31;100.00;99623.19;5093969;28;20018;-79
2022/02/01 04:29:20;;;;;;;;;;;;;;;8.36;100.00;99622.78;5075963;28;20012;-79
2022/02/01 04:31:47;;;;;;;;;;;;;;;8.35;100.00;99629.56;5093852;28;19999;-79
2022/02/01 04:34:14;;;;;;;;;;;;;;;8.54;100.00;99631.97;5094178;28;20355;-79
2022/02/01 04:36:43;;;;;;;;;;;;;;;8.43;100.00;99628.38;5076829;28;20015;-79
2022/02/01 04:39:11;;;;;;;;;;;;;;;8.45;100.00;99634.34;5096551;28;20293;-79
2022/02/01 04:41:38;;;;;;;;;;;;;;;8.55;100.00;99632.78;5114254;28;19942;-79
2022/02/01 04:44:05;;;;;;;;;;;;;;;8.40;100.00;99626.41;5114152;28;19920;-79
2022/02/01 04:46:32;;;;;;;;;;;;;;;8.46;100.00;99635.94;5114297;28;19924;-78
2022/02/01 04:49:02;;;;;;;;;;;;;;;8.48;100.00;99622.41;5096129;28;20300;-79
2022/02/01 04:51:30;;;;;;;;;;;;;;;8.50;100.00;99653.44;5114181;28;19927;-79
2022/02/01 04:53:57;;;;;;;;;;;;;;;8.47;100.00;99569.88;5096014;28;19919;-79
2022/02/01 04:56:25;;;;;;;;;;;;;;;8.55;100.00;99632.78;5079418;28;20046;-78
2022/02/01 04:58:52;;;;;;;;;;;;;;;8.48;100.00;99619.63;5079246;28;19927;-79
2022/02/01 05:01:26;;;;;;;;;;;;;;;8.49;100.00;99632.38;5095701;28;19920;-79
2022/02/01 05:03:53;;;;;;;;;;;;;;;8.53;100.00;99652.66;5116164;28;19943;-79
2022/02/01 05:06:22;;;;;;;;;;;;;;;8.63;100.00;99651.88;5083156;28;20068;-79
2022/02/01 05:08:49;;;;;;;;;;;;;;;8.66;100.00;99639.16;5118152;28;20040;-78
2022/02/01 05:11:16;;;;;;;;;;;;;;;8.64;100.00;99636.75;5082753;28;19941;-78
2022/02/01 05:14:02;;;;;;;;;;;;;;;8.64;100.00;99650.69;5099714;28;19920;-79
2022/02/01 05:16:43;;;;;;;;;;;;;;;8.60;100.00;99655.44;5075291;28;19920;-79
2022/02/01 05:19:16;;;;;;;;;;;;;;;8.71;100.00;99645.13;5100196;28;19924;-79
2022/02/01 05:21:44;;;;;;;;;;;;;;;8.71;100.00;99624.81;5079443;28;20045;-78
2022/02/01 05:24:12;;;;;;;;;;;;;;;8.62;100.00;99658.63;5092609;28;19949;-78
2022/02/01 05:26:42;;;;;;;;;;;;;;;8.61;100.00;99637.56;5117830;28;19934;-79
2022/02/01 05:29:09;;;;;;;;;;;;;;;8.62;100.00;99641.91;5099748;28;20409;-79
2022/02/01 05:31:36;;;;;;;;;;;;;;;8.59;100.00;99614.88;5117519;28;19920;-78
2022/02/01 05:34:03;;;;;;;;;;;;;;;8.58;100.00;99615.25;5099442;28;19942;-79
2022/02/01 05:36:30;;;;;;;;;;;;;;;8.58;100.00;99604.94;5067994;28;19923;-79
2022/02/01 05:38:57;;;;;;;;;;;;;;;8.73;100.00;99623.22;5097356;28;19920;-78
2022/02/01 05:41:26;;;;;;;;;;;;;;;8.71;100.00;99583.00;5061970;28;20421;-79
2022/02/01 05:43:53;;;;;;;;;;;;;;;8.74;100.00;99616.47;5062517;28;19920;-79
2022/02/01 05:46:20;;;;;;;;;;;;;;;8.72;100.00;99599.34;5096837;28;19935;-79
2022/02/01 05:48:47;;;;;;;;;;;;;;;8.70;100.00;99589.78;5062277;28;20371;-79
2022/02/01 05:51:14;;;;;;;;;;;;;;;8.68;100.00;99603.31;5096954;28;19923;-79
2022/02/01 05:53:42;;;;;;;;;;;;;;;8.78;100.00;99589.38;5096900;28;20436;-79
2022/02/01 05:56:09;;;;;;;;;;;;;;;8.82;100.00;99620.84;5062147;28;20335;-79
2022/02/01 05:58:36;;;;;;;;;;;;;;;8.87;100.00;99619.66;5078626;28;20529;-79
2022/02/01 06:01:02;;;;;;;;;;;;;;;8.89;100.00;99614.47;5098444;28;19927;-78
2022/02/01 06:03:29;;;;;;;;;;;;;;;8.81;100.00;99612.88;5095404;28;19930;-79
2022/02/01 06:05:57;;;;;;;;;;;;;;;8.89;100.00;99645.91;5102543;28;20347;-79
2022/02/01 06:08:26;;;;;;;;;;;;;;;8.84;100.00;99629.63;5088265;28;19977;-79
2022/02/01 06:10:54;;;;;;;;;;;;;;;8.92;100.00;99630.41;5092648;28;19919;-78
2022/02/01 06:13:21;;;;;;;;;;;;;;;8.89;100.00;99612.47;5116774;28;19924;-79
2022/02/01 06:15:48;;;;;;;;;;;;;;;8.95;100.00;99630.38;5064256;28;20012;-78
2022/02/01 06:18:15;;;;;;;;;;;;;;;8.90;100.00;99628.03;5081808;28;19923;-79
2022/02/01 06:20:42;;;;;;;;;;;;;;;8.83;100.00;99625.22;5116453;28;19981;-79
2022/02/01 06:23:13;;;;;;;;;;;;;;;8.97;100.00;99644.72;5098377;28;19919;-78
2022/02/01 06:25:50;;;;;;;;;;;;;;;8.96;100.00;99651.50;5116569;28;19919;-78
2022/02/01 06:28:18;;;;;;;;;;;;;;;8.98;100.00;99646.31;5098322;28;19920;-78
2022/02/01 06:30:46;;;;;;;;;;;;;;;8.98;100.00;99626.78;5098629;28;20015;-79
2022/02/01 06:33:13;;;;;;;;;;;;;;;8.99;100.00;99647.91;5098543;28;19927;-79
2022/02/01 06:35:40;;;;;;;;;;;;;;;9.10;100.00;99664.63;5065050;28;19920;-78
2022/02/01 06:38:08;;;;;;;;;;;;;;;9.04;100.00;99650.28;5116248;28;19927;-79
2022/02/01 06:40:35;;;;;;;;;;;;;;;9.04;100.00;99647.50;5116371;28;19926;-79
2022/02/01 06:43:02;;;;;;;;;;;;;;;9.04;100.00;99644.72;5081284;28;19920;-78
2022/02/01 06:45:29;;;;;;;;;;;;;;;9.12;100.00;99646.31;5081346;28;19926;-79
2022/02/01 06:47:57;;;;;;;;;;;;;;;9.04;100.00;99643.94;5081423;28;19920;-78
2022/02/01 06:50:24;;;;;;;;;;;;;;;9.06;100.00;99653.47;5095980;28;20015;-78
2022/02/01 06:52:56;;;;;;;;;;;;;;;9.03;100.00;99633.97;5077639;28;19924;-78
2022/02/01 06:55:34;;;;;;;;;;;;;;;9.12;100.00;99651.88;5095425;28;20024;-79
2022/02/01 06:58:01;;;;;;;;;;;;;;;9.01;100.00;99662.22;5080857;28;19989;-79
2022/02/01 07:00:28;;;;;;;;;;;;;;;9.17;100.00;99664.63;5114712;28;20043;-78
2022/02/01 07:02:55;;;;;;;;;;;;;;;9.15;100.00;99623.19;5093341;28;19920;-78
2022/02/01 07:05:22;;;;;;;;;;;;;;;9.21;100.00;99639.53;5096964;28;19923;-78
2022/02/01 07:07:50;;;;;;;;;;;;;;;9.20;100.00;99622.00;5076993;28;19924;-78
2022/02/01 07:10:18;;;;;;;;;;;;;;;9.09;100.00;99601.69;5077325;28;20018;-78
2022/02/01 07:12:45;;;;;;;;;;;;;;;9.14;100.00;99607.69;5077113;28;19974;-78
2022/02/01 07:15:12;;;;;;;;;;;;;;;9.22;100.00;99632.75;5092591;28;20031;-78
2022/02/01 07:17:46;;;;;;;;;;;;;;;9.06;100.00;99614.44;5097359;28;20285;-78
2022/02/01 07:20:14;;;;;;;;;;;;;;;9.15;100.00;99623.19;5072243;28;20012;-79
2022/02/01 07:22:43;;;;;;;;;;;;;;;9.18;100.00;99604.09;5095067;28;19924;-78
2022/02/01 07:25:16;;;;;;;;;;;;;;;9.17;100.00;99589.34;5076862;28;20023;-78
2022/02/01 07:27:47;;;;;;;;;;;;;;;9.15;100.00;99591.72;5080300;28;19927;-78
2022/02/01 07:30:18;;;;;;;;;;;;;;;9.07;100.00;99588.16;5097163;28;20324;-79
2022/02/01 07:32:46;;;;;;;;;;;;;;;9.04;100.00;99597.31;5115326;28;19920;-79
2022/02/01 07:35:13;;;;;;;;;;;;;;;9.09;100.00;99596.94;5096900;28;20065;-79
2022/02/01 07:37:42;;;;;;;;;;;;;;;9.08;100.00;99617.66;5097326;28;20022;-82
2022/02/01 07:40:10;;;;;;;;;;;;;;;9.11;100.00;99622.41;5096547;28;19951;-79
2022/02/01 07:42:37;;;;;;;;;;;;;;;9.07;100.00;99635.53;5097159;28;20006;-78
2022/02/01 07:45:06;;;;;;;;;;;;;;;9.03;100.00;99654.28;5115107;28;19946;-77
2022/02/01 07:47:32;;;;;;;;;;;;;;;9.04;100.00;99655.84;5115255;28;19942;-79
2022/02/01 07:50:00;;;;;;;;;;;;;;;9.13;100.00;99631.16;5096785;28;19920;-80
2022/02/01 07:52:27;;;;;;;;;;;;;;;9.19;100.00;99651.84;5096292;28;19920;-80
2022/02/01 07:54:54;;;;;;;;;;;;;;;9.23;100.00;99646.28;5054586;28;19947;-79
2022/02/01 07:57:21;;;;;;;;;;;;;;;9.27;100.00;99652.66;5056766;28;20019;-79
2022/02/01 07:59:49;;;;;;;;;;;;;;;9.29;100.00;99663.41;5056445;28;19927;-79
2022/02/01 08:02:20;;;;;;;;;;;;;;;9.29;100.00;99643.88;5083073;28;19923;-79
2022/02/01 08:05:03;;;;;;;;;;;;;;;9.25;100.00;99660.63;5059407;28;19955;-79
2022/02/01 08:07:30;;;;;;;;;;;;;;;9.20;100.00;99613.63;5081451;28;19955;-79
2022/02/01 08:10:01;;;;;;;;;;;;;;;9.35;100.00;99667.38;5096905;28;20057;-80
2022/02/01 08:20:36;;;;;;;;;;;;;;;9.44;100.00;99684.50;5071253;28;19920;-79
2022/02/01 08:23:04;;;;;;;;;;;;;;;9.48;100.00;99699.25;5090768;28;19923;-80
2022/02/01 08:25:32;;;;;;;;;;;;;;;9.38;100.00;99691.69;5073243;28;20284;-80
2022/02/01 08:28:01;;;;;;;;;;;;;;;9.44;100.00;99701.22;5090560;28;19969;-80
2022/02/01 08:30:28;;;;;;;;;;;;;;;9.54;100.00;99700.44;5052953;28;20509;-80
2022/02/01 08:32:55;;;;;;;;;;;;;;;9.44;100.00;99706.81;5038230;28;19928;-77
2022/02/01 08:35:22;;;;;;;;;;;;;;;9.47;100.00;99686.47;5054571;28;19932;-77
2022/02/01 08:38:05;;;;;;;;;;;;;;;9.51;100.00;99713.16;5057234;28;20265;-76
2022/02/01 08:40:44;;;;;;;;;;;;;;;9.53;100.00;99679.28;5057144;28;19924;-77
2022/02/01 08:43:12;;;;;;;;;;;;;;;9.53;100.00;99698.81;5086422;28;19920;-75
2022/02/01 08:45:40;;;;;;;;;;;;;;;9.61;100.00;99700.41;5087857;28;19927;-75
2022/02/01 08:48:10;;;;;;;;;;;;;;;9.60;100.00;99696.84;5089191;28;20519;-75
2022/02/01 08:50:37;;;;;;;;;;;;;;;9.68;100.00;99686.47;5071652;28;19919;-75
2022/02/01 08:56:03;;;;;;;;;;;;;;;9.63;100.00;99681.28;5058377;28;20534;-75
2022/02/01 08:58:31;;;;;;;;;;;;;;;9.72;100.00;99684.44;5090174;28;20011;-75
2022/02/01 09:00:59;;;;;;;;;;;;;;;9.85;100.00;99682.78;5084457;28;19924;-75
2022/02/01 09:03:27;;;;;;;;;;;;;;;9.61;100.00;99655.78;5071141;28;20006;-76
2022/02/01 09:05:54;;;;;;;;;;;;;;;9.70;100.00;99667.31;5072247;28;19927;-75
2022/02/01 09:08:22;;;;;;;;;;;;;;;9.61;100.00;99639.03;5055231;28;20579;-75
2022/02/01 09:10:50;;;;;;;;;;;;;;;9.62;100.00;99640.63;5071276;28;19920;-75
2022/02/01 09:13:18;;;;;;;;;;;;;;;9.66;100.00;99638.63;5090187;28;20066;-75
2022/02/01 09:15:45;;;;;;;;;;;;;;;9.71;100.00;99650.16;5123514;28;20030;-75
2022/02/01 09:18:12;;;;;;;;;;;;;;;9.58;100.00;99631.47;5076226;28;19952;-74
2022/02/01 09:20:39;;;;;;;;;;;;;;;9.66;100.00;99633.03;5094605;28;20374;-75
2022/02/01 09:23:09;;;;;;;;;;;;;;;9.72;100.00;99609.91;5096150;28;20290;-75
2022/02/01 09:25:38;;;;;;;;;;;;;;;9.63;100.00;99598.38;5113394;28;20412;-76
2022/02/01 09:28:06;;;;;;;;;;;;;;;9.54;100.00;99564.53;5075946;28;19943;-75
2022/02/01 09:30:34;;;;;;;;;;;;;;;9.72;100.00;99589.56;5090323;28;20640;-73
2022/02/01 09:33:01;;;;;;;;;;;;;;;9.72;100.00;99542.94;5108868;28;20272;-75
2022/02/01 09:35:28;;;;;;;;;;;;;;;9.72;100.00;99539.34;5092592;28;20279;-74
2022/02/01 09:37:56;;;;;;;;;;;;;;;9.76;100.00;99570.81;5075128;28;19927;-74
2022/02/01 09:40:42;;;;;;;;;;;;;;;9.73;100.00;99546.50;5072647;28;20019;-74
2022/02/01 09:43:09;;;;;;;;;;;;;;;9.76;100.00;99549.28;5076328;28;19920;-74
2022/02/01 09:45:37;;;;;;;;;;;;;;;9.77;100.00;99522.19;5075069;28;19920;-74
2022/02/01 09:48:05;;;;;;;;;;;;;;;9.86;100.00;99534.47;5054771;28;20271;-74
2022/02/01 09:50:36;;;;;;;;;;;;;;;9.82;100.00;99489.03;5047156;28;19924;-76
2022/02/01 09:53:03;;;;;;;;;;;;;;;9.88;100.00;99478.22;5080942;28;20458;-75
2022/02/01 09:55:31;;;;;;;;;;;;;;;9.82;100.00;99479.88;5068961;28;19963;-74
2022/02/01 09:57:58;;;;;;;;;;;;;;;9.91;100.00;99491.38;5074055;28;20451;-75
2022/02/01 10:00:33;;;;;;;;;;;;;;;9.92;100.00;99473.44;5097331;28;20351;-76
2022/02/01 10:03:04;;;;;;;;;;;;;;;9.95;100.00;99469.84;5078259;28;20023;-75
2022/02/01 10:05:31;;;;;;;;;;;;;;;9.96;100.00;99454.66;5079606;28;19926;-75
2022/02/01 10:08:00;;;;;;;;;;;;;;;9.92;100.00;99432.34;5063532;28;19943;-75
2022/02/01 10:10:31;;;;;;;;;;;;;;;9.92;100.00;99432.34;5096782;28;19926;-76
2022/02/01 10:13:14;;;;;;;;;;;;;;;9.87;100.00;99402.09;5091388;28;19947;-79
2022/02/01 10:16:13;;;;;;;;;;;;;;;9.90;100.00;99400.47;5055735;28;19963;-79
2022/02/01 10:18:40;;;;;;;;;;;;;;;9.87;100.00;99365.00;5088040;28;19962;-83
2022/02/01 10:21:08;;;;;;;;;;;;;;;9.93;100.00;99388.50;5069749;28;19921;-80
2022/02/01 10:23:38;;;;;;;;;;;;;;;9.93;100.00;99391.28;5073248;28;19971;-79
2022/02/01 10:26:12;;;;;;;;;;;;;;;9.94;100.00;99395.66;5088773;28;20081;-81
2022/02/01 10:31:17;;;;;;;;;;;;;;;10.00;100.00;99382.84;5088459;28;20386;-86
2022/02/01 10:36:18;;;;;;;;;;;;;;;10.25;100.00;99409.34;5092716;28;19942;-82
2022/02/01 10:38:47;;;;;;;;;;;;;;;10.21;100.00;99388.25;5075179;28;20325;-82
2022/02/01 10:41:15;;;;;;;;;;;;;;;10.03;100.00;99362.47;5093305;28;19926;-82
2022/02/01 10:43:42;;;;;;;;;;;;;;;10.12;100.00;99346.84;5068337;28;20351;-82
2022/02/01 10:46:10;;;;;;;;;;;;;;;10.09;100.00;99369.22;5052678;28;19921;-85
2022/02/01 10:48:45;;;;;;;;;;;;;;;10.26;100.00;99377.44;5069039;28;19921;-85
2022/02/01 10:51:19;;;;;;;;;;;;;;;10.14;100.00;99354.81;5072391;28;19921;-84
2022/02/01 10:53:51;;;;;;;;;;;;;;;10.24;100.00;99362.28;5080495;28;19924;-80
2022/02/01 10:56:20;;;;;;;;;;;;;;;10.15;100.00;99359.19;5092262;28;19920;-79
2022/02/01 10:58:49;;;;;;;;;;;;;;;10.10;100.00;99342.91;5071019;28;19924;-80
2022/02/01 11:01:18;;;;;;;;;;;;;;;10.21;100.00;99366.72;5075133;28;19920;-82
2022/02/01 11:03:47;;;;;;;;;;;;;;;10.22;100.00;99367.53;5078911;28;20370;-78
2022/02/01 11:06:15;;;;;;;;;;;;;;;10.12;100.00;99373.97;5080450;28;19927;-76
2022/02/01 11:08:43;;;;;;;;;;;;;;;10.23;100.00;99366.31;5085734;28;19927;-76
2022/02/01 11:11:35;;;;;;;;;;;;;;;10.21;100.00;99377.09;5071175;28;20015;-77
2022/02/01 11:14:02;;;;;;;;;;;;;;;10.04;100.00;99338.94;5076714;28;19928;-76
2022/02/01 11:16:29;;;;;;;;;;;;;;;10.13;100.00;99330.91;5069661;28;19920;-78
2022/02/01 11:19:00;;;;;;;;;;;;;;;10.10;100.00;99306.63;5066680;28;19931;-78
2022/02/01 11:21:27;;;;;;;;;;;;;;;10.21;100.00;99322.03;5067821;28;19921;-79
2022/02/01 11:24:00;;;;;;;;;;;;;;;10.33;100.00;99315.16;5069972;28;20375;-87
2022/02/01 11:26:50;;;;;;;;;;;;;;;10.39;100.00;99308.66;5068458;28;19959;-83
2022/02/01 11:31:59;;;;;;;;;;;;;;;10.47;100.00;99261.88;5077341;28;19943;-75
2022/02/01 11:34:38;;;;;;;;;;;;;;;10.42;100.00;99284.72;5077214;28;19970;-79
2022/02/01 11:37:10;;;;;;;;;;;;;;;10.45;100.00;99303.44;5070765;28;19924;-79
2022/02/01 11:39:48;;;;;;;;;;;;;;;10.49;100.00;99281.81;5072934;28;19920;-78
2022/02/01 11:42:17;;;;;;;;;;;;;;;10.44;100.00;99290.66;5071067;28;20309;-78
2022/02/01 11:44:44;;;;;;;;;;;;;;;10.62;100.00;99308.81;5071307;28;20696;-78
2022/02/01 11:47:11;;;;;;;;;;;;;;;10.49;100.00;99293.00;5068989;28;20128;-78
2022/02/01 11:49:55;;;;;;;;;;;;;;;10.52;100.00;99317.31;5071192;28;19921;-80
2022/02/01 11:52:23;;;;;;;;;;;;;;;10.46;100.00;99289.06;5069491;28;19921;-80
2022/02/01 11:55:04;;;;;;;;;;;;;;;10.45;100.00;99269.91;5053615;28;19920;-81
2022/02/01 11:57:50;;;;;;;;;;;;;;;10.56;100.00;99309.66;5051194;28;19926;-80
2022/02/01 12:00:26;;;;;;;;;;;;;;;10.42;100.00;99281.94;5069319;28;19920;-81
2022/02/01 12:03:01;;;;;;;;;;;;;;;10.48;100.00;99283.03;5068223;28;19943;-80
2022/02/01 12:05:34;;;;;;;;;;;;;;;10.47;100.00;99264.69;5070357;28;19920;-86
2022/02/01 12:08:17;;;;;;;;;;;;;;;10.53;100.00;99268.59;5071617;28;19921;-81
2022/02/01 12:10:47;;;;;;;;;;;;;;;10.58;100.00;99290.50;5071319;28;19927;-77
2022/02/01 12:13:15;;;;;;;;;;;;;;;10.39;100.00;99277.16;5070644;28;20118;-80
2022/02/01 12:15:45;;;;;;;;;;;;;;;10.47;100.00;99261.88;5070555;28;19931;-79
2022/02/01 12:18:31;;;;;;;;;;;;;;;10.50;100.00;99236.72;5070356;28;20015;-81
2022/02/01 12:21:05;;;;;;;;;;;;;;;10.42;100.00;99226.06;5052158;28;19927;-79
2022/02/01 12:23:32;;;;;;;;;;;;;;;10.35;100.00;99256.84;5052738;28;19920;-78
2022/02/01 12:25:59;;;;;;;;;;;;;;;10.45;100.00;99223.19;5069482;28;19982;-78
2022/02/01 12:28:28;;;;;;;;;;;;;;;10.39;100.00;99210.13;5068858;28;19920;-78
2022/02/01 12:31:10;;;;;;;;;;;;;;;10.34;100.00;99238.53;5069691;28;20364;-79
2022/02/01 12:33:45;;;;;;;;;;;;;;;10.24;100.00;99243.00;5068700;28;19920;-79
2022/02/01 12:36:13;;;;;;;;;;;;;;;10.34;100.00;99218.97;5055863;28;20349;-77
2022/02/01 12:38:41;;;;;;;;;;;;;;;10.42;100.00;99238.00;5050404;28;19928;-77
2022/02/01 12:41:17;;;;;;;;;;;;;;;10.44;100.00;99243.16;5049325;28;19920;-78
2022/02/01 12:47:06;;;;;;;;;;;;;;;10.33;100.00;99246.09;5032844;28;20335;-76
2022/02/01 12:49:39;;;;;;;;;;;;;;;10.26;100.00;99187.53;5026670;28;19921;-76
2022/02/01 12:52:18;;;;;;;;;;;;;;;10.20;100.00;99241.47;5050202;28;19921;-79
2022/02/01 12:54:56;;;;;;;;;;;;;;;10.18;100.00;99193.63;5033119;28;20006;-79
2022/02/01 12:57:23;;;;;;;;;;;;;;;10.30;100.00;99240.56;5047628;28;20015;-79
2022/02/01 12:59:53;;;;;;;;;;;;;;;10.21;100.00;99215.13;5014343;28;19939;-79
2022/02/01 13:02:22;;;;;;;;;;;;;;;10.23;100.00;99173.63;5049528;28;19932;-78
2022/02/01 13:04:53;;;;;;;;;;;;;;;10.24;100.00;99187.16;5047345;28;20043;-76
2022/02/01 13:15:44;;;;;;;;;;;;;;;10.32;100.00;99204.63;5067307;28;20068;-76
2022/02/01 13:20:02;;;;;;;;;;;;;;;10.27;100.00;99199.53;5067468;28;19920;-76
2022/02/01 13:21:15;;;;;;;;;;;;;;;10.33;100.00;99193.03;5066692;28;20381;-76
2022/02/01 13:23:48;;;;;;;7.57;1.90;;;;;;;10.27;100.00;99175.16;5076796;28;19924;-78
2022/02/01 13:26:18;;;;;;;20.35;2.65;;;;;;;10.45;100.00;99194.50;5093052;28;20552;-77
2022/02/01 13:29:12;;;;;;;;;;;;;;;10.44;100.00;99190.09;5091984;28;20043;-76
2022/02/01 13:31:40;;;;;;;;;;;;;;;10.26;100.00;99211.88;5083708;28;19924;-76
2022/02/01 13:34:11;;;;;;;;;;;;;;;10.22;100.00;99236.28;5079955;28;20013;-76
2022/02/01 13:36:48;;;;;;;;;;;;;;;10.37;100.00;99229.31;5070529;28;19921;-75
2022/02/01 13:39:25;;;;;;;;;;;;;;;10.17;100.00;99119.44;5056295;28;19950;-76
2022/02/01 13:42:05;;;;;;;;;;;;;;;10.27;100.00;99227.44;5076075;28;19960;-75
2022/02/01 13:44:55;;;;;;;13.55;2.20;;;;;;;10.32;100.00;99229.75;5077830;28;20275;-76
2022/02/01 13:47:32;;;;;;;;;;;;;;;10.26;100.00;99211.88;5076377;28;20041;-76
2022/02/01 13:50:00;;;;;;;;;;;;;;;10.28;100.00;99201.09;5076062;28;20003;-76
2022/02/01 13:52:27;;;;;;;;;;;;;;;10.30;100.00;99212.66;5070863;28;20015;-76
2022/02/01 13:54:54;;;;;;;;;;;;;;;10.26;100.00;99212.69;5055072;28;20066;-75
2022/02/01 13:57:22;;;;;;;;;;;;;;;10.37;100.00;99218.13;5038608;28;19920;-75
2022/02/01 13:59:50;;;;;;;;;;;;;;;10.36;100.00;99213.75;5055238;28;20011;-76
2022/02/01 14:02:28;;;;;;;;;;;;;;;10.31;100.00;99189.88;5071892;28;19942;-75
2022/02/01 14:05:15;;;;;;;;;;;;;;;10.19;100.00;99162.47;5056587;28;19927;-76
2022/02/01 14:10:51;;;;;;;;;;;;;;;10.13;100.00;99191.31;5056338;28;20275;-76
2022/02/01 14:34:34;;;;;;;9.70;2.08;;;;;;;10.13;100.00;99164.16;5074218;28;20041;-76
2022/02/01 14:37:07;;;;;;;12.40;2.67;;;;;;;10.26;100.00;99195.13;5088702;28;20032;-76
2022/02/01 14:45:10;;;;;;;;;;;;;;;10.07;100.00;99199.34;5060338;28;19962;-76
2022/02/01 14:47:37;;;;;;;;;;;;;;;10.18;100.00;99207.59;5095271;28;20470;-76
2022/02/01 14:50:07;;;;;;;11.82;2.20;;;;;;;10.10;100.00;99217.28;5076518;28;19932;-76
2022/02/01 14:52:35;;;;;;;15.05;2.67;;;;;;;10.12;100.00;99229.59;5076752;28;20055;-76
2022/02/01 14:55:12;;;;;;;14.73;2.67;;;;;;;10.05;100.00;99200.94;5075734;28;20097;-76
2022/02/01 15:13:42;;;;;;;17.13;2.80;;;;;;;10.25;100.00;99166.41;5076835;28;20036;-76
2022/02/01 15:16:21;;;;;;;14.85;3.53;;;;;;;10.33;100.00;99195.06;5094888;28;20478;-76
2022/02/01 15:18:48;;;;;;;16.73;3.10;;;;;;;10.26;100.00;99223.06;5076918;28;20036;-76
2022/02/01 15:21:16;;;;;;;;;;;;;;;10.07;100.00;99207.72;5073476;28;20044;-76
2022/02/01 15:23:43;;;;;;;;;;;;;;;10.19;100.00;99198.00;5073532;28;19927;-76